Time;durP1;ratioP1;P1;durP2;ratioP2;P2;SDS_P1;SDS_P2;PMS_P1;PMS_P2;Temp;Humidity;BMP_temperature;BMP_pressure;BME280_temperature;BME280_humidity;BME280_pressure;Samples;Min_cycle;Max_cycle;Signal;HPM_P1;HPM_P2
2022/02/28 00:01:09;;;;;;;1999.90;999.90;;;;;;;-2.28;51.90;103153.00;5015279;27;97705;-71
2022/02/28 00:03:37;;;;;;;1999.90;999.90;;;;;;;-2.30;52.13;103154.50;5017811;28;97881;-68
2022/02/28 00:06:05;;;;;;;1999.90;999.90;;;;;;;-2.34;51.65;103160.13;5019744;28;96939;-70
2022/02/28 00:08:33;;;;;;;1999.90;999.90;;;;;;;-2.37;51.92;103152.94;5017802;27;99372;-69
2022/02/28 00:11:01;;;;;;;1999.90;999.90;;;;;;;-2.41;52.44;103155.94;5019004;28;98230;-70
2022/02/28 00:13:29;;;;;;;1999.90;999.90;;;;;;;-2.45;52.29;103158.03;5016911;27;97749;-69
2022/02/28 00:15:58;;;;;;;1999.90;999.90;;;;;;;-1.95;50.83;103155.06;5015155;27;98151;-68
2022/02/28 00:18:27;;;;;;;1999.90;999.90;;;;;;;-2.28;51.69;103159.16;5016708;28;98757;-72
2022/02/28 00:20:54;;;;;;;1999.90;999.90;;;;;;;-2.38;51.70;103153.66;5018470;28;97665;-70
2022/02/28 00:23:22;;;;;;;1999.90;999.90;;;;;;;-2.46;51.90;103153.59;5020113;27;97664;-71
2022/02/28 00:25:50;;;;;;;1999.90;999.90;;;;;;;-2.51;51.88;103152.16;4998667;28;100394;-69
2022/02/28 00:28:18;;;;;;;1999.90;999.90;;;;;;;-2.53;52.51;103154.59;5015292;27;97708;-69
2022/02/28 00:30:46;;;;;;;1999.90;999.90;;;;;;;-2.59;52.52;103146.09;5012342;27;98817;-68
2022/02/28 00:33:15;;;;;;;1999.90;999.90;;;;;;;-2.59;52.80;103155.56;5016593;28;97530;-67
2022/02/28 00:35:43;;;;;;;1999.90;999.90;;;;;;;-2.60;52.38;103162.47;5013542;28;99696;-70
2022/02/28 00:38:11;;;;;;;1999.90;999.90;;;;;;;-2.60;52.06;103164.16;5005904;27;99789;-70
2022/02/28 00:40:38;;;;;;;1999.90;999.90;;;;;;;-2.62;52.20;103165.66;5017953;27;99569;-67
2022/02/28 00:43:07;;;;;;;1999.90;999.90;;;;;;;-2.65;52.22;103163.63;5018760;28;97992;-69
2022/02/28 00:45:35;;;;;;;1999.90;999.90;;;;;;;-2.69;52.58;103161.44;5020273;28;97778;-69
2022/02/28 00:48:03;;;;;;;1999.90;999.90;;;;;;;-2.74;53.03;103157.41;5017837;28;98374;-70
2022/02/28 00:50:32;;;;;;;1999.90;999.90;;;;;;;-2.75;52.57;103149.41;5015998;28;96811;-68
2022/02/28 00:53:01;;;;;;;1999.90;999.90;;;;;;;-2.75;52.15;103149.41;5016163;28;99556;-70
2022/02/28 00:55:29;;;;;;;1999.90;999.90;;;;;;;-2.79;52.74;103148.16;5032778;27;97823;-72
2022/02/28 00:57:58;;;;;;;1999.90;999.90;;;;;;;-2.80;52.21;103146.28;5017986;28;97627;-72
2022/02/28 01:00:26;;;;;;;1999.90;999.90;;;;;;;-2.82;52.39;103142.59;5034791;27;97870;-67
2022/02/28 01:02:54;;;;;;;1999.90;999.90;;;;;;;-2.86;52.89;103141.34;5014912;28;97965;-71
2022/02/28 01:05:23;;;;;;;1999.90;999.90;;;;;;;-2.88;53.04;103145.44;5017306;28;97442;-69
2022/02/28 01:07:53;;;;;;;1999.90;999.90;;;;;;;-2.91;52.98;103136.38;5016566;27;97827;-69
2022/02/28 01:10:22;;;;;;;1999.90;999.90;;;;;;;-2.95;52.62;103140.28;5021154;27;97830;-68
2022/02/28 01:12:52;;;;;;;1999.90;999.90;;;;;;;-3.00;52.52;103135.31;5017734;28;97532;-71
2022/02/28 01:15:21;;;;;;;1999.90;999.90;;;;;;;-3.04;52.96;103130.53;5022058;28;97709;-68
2022/02/28 01:17:50;;;;;;;1999.90;999.90;;;;;;;-3.09;53.07;103136.88;5019805;28;99335;-71
2022/02/28 01:20:18;;;;;;;1999.90;999.90;;;;;;;-3.14;52.96;103125.97;5024521;27;98076;-74
2022/02/28 01:22:49;;;;;;;1999.90;999.90;;;;;;;-3.21;52.89;103125.09;5018260;28;98361;-70
2022/02/28 01:25:18;;;;;;;1999.90;999.90;;;;;;;-3.24;52.87;103122.16;5005241;28;100848;-72
2022/02/28 01:27:46;;;;;;;1999.90;999.90;;;;;;;-3.29;52.99;103121.59;5020090;27;98136;-71
2022/02/28 01:30:14;;;;;;;1999.90;999.90;;;;;;;-3.32;52.69;103128.16;5021280;28;98486;-71
2022/02/28 01:32:42;;;;;;;1999.90;999.90;;;;;;;-3.39;53.12;103139.56;5018571;28;97720;-70
2022/02/28 01:35:11;;;;;;;1999.90;999.90;;;;;;;-3.43;53.14;103133.81;5022263;27;97636;-68
2022/02/28 01:37:40;;;;;;;1999.90;999.90;;;;;;;-3.45;53.44;103135.31;5019242;27;99584;-68
2022/02/28 01:40:10;;;;;;;1999.90;999.90;;;;;;;-3.50;53.22;103136.47;5022547;28;98133;-71
2022/02/28 01:42:40;;;;;;;1999.90;999.90;;;;;;;-3.61;52.94;103131.72;5014924;28;97155;-73
2022/02/28 01:45:10;;;;;;;1999.90;999.90;;;;;;;-3.70;53.53;103131.59;5012797;28;98108;-69
2022/02/28 01:47:38;;;;;;;1999.90;999.90;;;;;;;-3.73;53.47;103130.31;5019585;27;99172;-69
2022/02/28 01:50:07;;;;;;;1999.90;999.90;;;;;;;-3.75;53.36;103131.81;5018222;28;96990;-73
2022/02/28 01:52:35;;;;;;;1999.90;999.90;;;;;;;-3.80;53.63;103132.97;5017715;27;98228;-71
2022/02/28 01:55:04;;;;;;;1999.90;999.90;;;;;;;-3.86;53.62;103122.78;5022251;27;97682;-69
2022/02/28 01:57:32;;;;;;;1999.90;999.90;;;;;;;-3.90;53.66;103121.50;5003316;27;99313;-69
2022/02/28 02:00:02;;;;;;;1999.90;999.90;;;;;;;-3.93;53.93;103121.13;5004530;28;98550;-67
2022/02/28 02:02:40;;;;;;;1999.90;999.90;;;;;;;-3.91;53.82;103123.88;5021686;27;97877;-72
2022/02/28 02:05:09;;;;;;;1999.90;999.90;;;;;;;-3.97;53.79;103124.09;5036112;27;98733;-67
2022/02/28 02:07:37;;;;;;;1999.90;999.90;;;;;;;-4.02;53.82;103120.03;5001705;28;98248;-69
2022/02/28 02:10:07;;;;;;;1999.90;999.90;;;;;;;-4.04;53.98;103120.59;5021137;27;97730;-71
2022/02/28 02:12:35;;;;;;;1999.90;999.90;;;;;;;-3.52;52.91;103123.28;5019144;27;97982;-69
2022/02/28 02:15:08;;;;;;;1999.90;999.90;;;;;;;-3.87;53.60;103115.69;5039957;27;97825;-72
2022/02/28 02:17:37;;;;;;;1999.90;999.90;;;;;;;-3.98;53.74;103122.25;5001978;27;99189;-71
2022/02/28 02:20:09;;;;;;;1999.90;999.90;;;;;;;-4.02;54.13;103119.13;5022602;27;97075;-70
2022/02/28 02:22:37;;;;;;;1999.90;999.90;;;;;;;-3.49;52.94;103114.88;4999617;28;99653;-70
2022/02/28 02:25:05;;;;;;;1999.90;999.90;;;;;;;-3.81;53.81;103123.28;5001275;28;99340;-69
2022/02/28 02:27:33;;;;;;;1999.90;999.90;;;;;;;-3.95;54.17;103120.00;5020509;28;97569;-71
2022/02/28 02:30:01;;;;;;;1999.90;999.90;;;;;;;-4.02;54.50;103116.50;5004496;28;99611;-68
2022/02/28 02:32:29;;;;;;;1999.90;999.90;;;;;;;-4.10;54.38;103115.66;5019780;27;98274;-68
2022/02/28 02:34:57;;;;;;;1999.90;999.90;;;;;;;-4.14;54.53;103118.63;5021176;28;100393;-71
2022/02/28 02:37:26;;;;;;;1999.90;999.90;;;;;;;-3.64;53.57;103118.34;4999253;28;99134;-70
2022/02/28 02:39:54;;;;;;;1999.90;999.90;;;;;;;-4.01;54.27;103119.31;5035341;27;97889;-68
2022/02/28 02:42:22;;;;;;;1999.90;999.90;;;;;;;-4.11;54.41;103118.97;5021077;27;99761;-72
2022/02/28 02:44:50;;;;;;;1999.90;999.90;;;;;;;-4.13;54.52;103116.94;5020301;28;99322;-71
2022/02/28 02:47:19;;;;;;;1999.90;999.90;;;;;;;-4.15;54.67;103110.66;5035381;27;98722;-71
2022/02/28 02:50:02;;;;;;;1999.90;999.90;;;;;;;-4.15;54.72;103106.38;5009199;28;97059;-69
2022/02/28 02:52:31;;;;;;;1999.90;999.90;;;;;;;-4.15;54.53;103111.56;4999164;28;96955;-70
2022/02/28 02:54:59;;;;;;;1999.90;999.90;;;;;;;-4.17;54.79;103117.34;5003240;28;101206;-72
2022/02/28 02:57:30;;;;;;;1999.90;999.90;;;;;;;-4.21;54.92;103130.72;5019470;28;97726;-72
2022/02/28 03:00:04;;;;;;;1999.90;999.90;;;;;;;-4.28;54.57;103115.16;5003864;28;98715;-70
2022/02/28 03:02:35;;;;;;;1999.90;999.90;;;;;;;-4.28;54.50;103115.16;4999585;28;97740;-70
2022/02/28 03:05:05;;;;;;;1999.90;999.90;;;;;;;-4.28;54.58;103113.47;5036211;27;97635;-70
2022/02/28 03:07:34;;;;;;;1999.90;999.90;;;;;;;-4.27;54.71;103110.16;5020535;28;97941;-71
2022/02/28 03:10:02;;;;;;;1999.90;999.90;;;;;;;-4.28;54.74;103112.56;5017539;27;97836;-67
2022/02/28 03:12:30;;;;;;;1999.90;999.90;;;;;;;-4.30;54.95;103111.47;5018497;28;97710;-69
2022/02/28 03:14:59;;;;;;;1999.90;999.90;;;;;;;-4.29;54.85;103116.84;5002838;28;97715;-70
2022/02/28 03:17:27;;;;;;;1999.90;999.90;;;;;;;-4.28;54.87;103118.66;5035351;27;97647;-69
2022/02/28 03:19:55;;;;;;;1999.90;999.90;;;;;;;-4.25;54.71;103113.84;5021012;27;98570;-71
2022/02/28 03:22:25;;;;;;;1999.90;999.90;;;;;;;-4.24;54.77;103115.69;5000544;28;97106;-70
2022/02/28 03:24:54;;;;;;;1999.90;999.90;;;;;;;-4.21;54.63;103116.06;5016279;27;99171;-69
2022/02/28 03:27:22;;;;;;;1999.90;999.90;;;;;;;-4.19;54.71;103127.53;5017890;27;97572;-70
2022/02/28 03:29:50;;;;;;;1999.90;999.90;;;;;;;-4.18;54.55;103118.06;5002596;28;96821;-68
2022/02/28 03:32:18;;;;;;;1999.90;999.90;;;;;;;-4.17;54.49;103112.16;5000369;28;97548;-70
2022/02/28 03:34:46;;;;;;;1999.90;999.90;;;;;;;-4.17;54.49;103114.75;4999893;28;100350;-69
2022/02/28 03:37:13;;;;;;;1999.90;999.90;;;;;;;-4.15;54.69;103114.16;5018363;28;98592;-69
2022/02/28 03:39:41;;;;;;;1999.90;999.90;;;;;;;-4.16;54.59;103117.53;5017191;28;100266;-68
2022/02/28 03:42:11;;;;;;;1999.90;999.90;;;;;;;-4.16;54.64;103114.00;5001674;28;96910;-70
2022/02/28 03:44:39;;;;;;;1999.90;999.90;;;;;;;-4.19;54.66;103113.66;5016578;28;97632;-67
2022/02/28 03:47:08;;;;;;;1999.90;999.90;;;;;;;-4.20;54.83;103106.56;5018258;27;97794;-69
2022/02/28 03:50:11;;;;;;;1999.90;999.90;;;;;;;-4.22;54.69;103114.19;5016454;27;97684;-69
2022/02/28 03:52:40;;;;;;;1999.90;999.90;;;;;;;-4.24;54.88;103110.50;5003776;28;97759;-70
2022/02/28 03:55:13;;;;;;;1999.90;999.90;;;;;;;-4.23;54.87;103112.38;5018060;27;97935;-69
2022/02/28 03:57:46;;;;;;;1999.90;999.90;;;;;;;-4.22;54.62;103111.59;5016527;27;99313;-70
2022/02/28 04:00:15;;;;;;;1999.90;999.90;;;;;;;-4.20;54.64;103107.50;5017170;27;96986;-69
2022/02/28 04:02:44;;;;;;;1999.90;999.90;;;;;;;-3.73;53.87;103105.19;5017505;27;97716;-69
2022/02/28 04:05:13;;;;;;;1999.90;999.90;;;;;;;-3.99;54.90;103106.50;5031466;27;97518;-70
2022/02/28 04:07:42;;;;;;;1999.90;999.90;;;;;;;-4.04;54.84;103105.94;5027769;27;98887;-69
2022/02/28 04:10:10;;;;;;;1999.90;999.90;;;;;;;-4.05;54.68;103109.31;5016275;28;98685;-71
2022/02/28 04:12:40;;;;;;;1999.90;999.90;;;;;;;-4.04;54.87;103112.81;4997116;28;97882;-70
2022/02/28 04:15:10;;;;;;;1999.90;999.90;;;;;;;-4.05;54.78;103109.31;5001675;28;99322;-69
2022/02/28 04:17:38;;;;;;;1999.90;999.90;;;;;;;-4.06;54.67;103110.03;5016862;27;97590;-71
2022/02/28 04:20:19;;;;;;;1999.90;999.90;;;;;;;-4.05;54.93;103116.16;5014310;28;98301;-71
2022/02/28 04:22:47;;;;;;;1999.90;999.90;;;;;;;-4.04;54.80;103116.34;5034748;27;98417;-71
2022/02/28 04:25:15;;;;;;;1999.90;999.90;;;;;;;-4.03;54.86;103118.22;5000934;28;98851;-69
2022/02/28 04:27:44;;;;;;;1999.90;999.90;;;;;;;-4.04;55.04;103107.59;5015997;28;97652;-71
2022/02/28 04:30:18;;;;;;;1999.90;999.90;;;;;;;-4.05;54.90;103106.69;5018463;27;100134;-69
2022/02/28 04:32:46;;;;;;;1999.90;999.90;;;;;;;-4.05;54.87;103104.09;4999211;28;97344;-67
2022/02/28 04:35:16;;;;;;;1999.90;999.90;;;;;;;-4.03;54.95;103102.63;5000660;28;99496;-68
2022/02/28 04:37:55;;;;;;;1999.90;999.90;;;;;;;-3.53;54.53;103107.50;4997614;28;98290;-70
2022/02/28 04:40:24;;;;;;;1999.90;999.90;;;;;;;-3.28;54.09;103099.13;5014990;28;97312;-69
2022/02/28 04:42:52;;;;;;;1999.90;999.90;;;;;;;-3.62;55.10;103106.44;5014485;28;97591;-70
2022/02/28 04:45:23;;;;;;;1999.90;999.90;;;;;;;-3.71;54.96;103108.91;5000441;28;99385;-71
2022/02/28 04:47:52;;;;;;;1999.90;999.90;;;;;;;-3.77;54.96;103103.03;5017660;27;99436;-71
2022/02/28 04:50:39;;;;;;;1999.90;999.90;;;;;;;-3.83;55.29;103106.56;5017337;28;97903;-71
2022/02/28 04:53:07;;;;;;;1999.90;999.90;;;;;;;-3.89;55.43;103107.72;5014633;28;97212;-71
2022/02/28 04:55:35;;;;;;;1999.90;999.90;;;;;;;-3.91;55.34;103117.03;5014153;28;98202;-69
2022/02/28 04:58:03;;;;;;;1999.90;999.90;;;;;;;-3.91;55.29;103113.47;5015750;27;99083;-71
2022/02/28 05:00:55;;;;;;;1999.90;999.90;;;;;;;-3.92;55.27;103109.03;4995564;27;98244;-72
2022/02/28 05:03:24;;;;;;;1999.90;999.90;;;;;;;-3.94;55.48;103114.06;4998156;28;98676;-71
2022/02/28 05:05:52;;;;;;;1999.90;999.90;;;;;;;-3.95;55.31;103122.59;5014116;27;101795;-72
2022/02/28 05:08:20;;;;;;;1999.90;999.90;;;;;;;-3.96;55.54;103125.97;5016468;28;97974;-73
2022/02/28 05:10:48;;;;;;;1999.90;999.90;;;;;;;-3.95;55.51;103116.50;5016010;28;97105;-70
2022/02/28 05:13:18;;;;;;;1999.90;999.90;;;;;;;-3.94;55.44;103119.28;5015598;27;98328;-72
2022/02/28 05:15:46;;;;;;;1999.90;999.90;;;;;;;-3.91;55.17;103124.81;5016775;27;98368;-72
2022/02/28 05:18:17;;;;;;;1999.90;999.90;;;;;;;-3.93;55.44;103131.50;5033783;27;97569;-70
2022/02/28 05:20:45;;;;;;;1999.90;999.90;;;;;;;-4.01;55.51;103132.31;5014665;27;97649;-69
2022/02/28 05:23:13;;;;;;;1999.90;999.90;;;;;;;-4.00;55.47;103130.63;4999718;28;97136;-70
2022/02/28 05:25:41;;;;;;;1999.90;999.90;;;;;;;-4.00;55.50;103130.63;5010988;28;100614;-71
2022/02/28 05:28:29;;;;;;;1999.90;999.90;;;;;;;-3.98;55.59;103130.06;5011643;27;100602;-71
2022/02/28 05:30:57;;;;;;;1999.90;999.90;;;;;;;-3.98;55.53;103127.47;5017589;28;96834;-70
2022/02/28 05:33:26;;;;;;;1999.90;999.90;;;;;;;-3.96;55.74;103125.03;5001357;28;98062;-70
2022/02/28 05:35:55;;;;;;;1999.90;999.90;;;;;;;-3.95;55.50;103124.31;5016798;28;99319;-72
2022/02/28 05:38:34;;;;;;;1999.90;999.90;;;;;;;-3.95;55.65;103120.00;4996550;28;99792;-69
2022/02/28 05:41:05;;;;;;;1999.90;999.90;;;;;;;-3.92;55.44;103128.19;5015574;28;98714;-69
2022/02/28 05:43:38;;;;;;;1999.90;999.90;;;;;;;-3.94;55.75;103124.47;5015303;27;99280;-71
2022/02/28 05:46:09;;;;;;;1999.90;999.90;;;;;;;-3.95;55.76;103129.50;5015498;27;99391;-68
2022/02/28 05:48:57;;;;;;;1999.90;999.90;;;;;;;-3.99;55.52;103123.00;5018239;28;97636;-69
2022/02/28 05:51:31;;;;;;;1999.90;999.90;;;;;;;-3.99;55.85;103125.59;4998007;28;97978;-69
2022/02/28 05:54:00;;;;;;;1999.90;999.90;;;;;;;-3.99;55.38;103124.69;5013823;28;97642;-69
2022/02/28 05:56:29;;;;;;;1999.90;999.90;;;;;;;-3.99;55.58;103120.38;5018367;28;98310;-71
2022/02/28 05:58:57;;;;;;;1999.90;999.90;;;;;;;-3.98;55.77;103132.66;5017274;28;97635;-68
2022/02/28 06:01:25;;;;;;;1999.90;999.90;;;;;;;-3.96;55.91;103128.56;5022217;27;98056;-70
2022/02/28 06:03:53;;;;;;;1999.90;999.90;;;;;;;-3.96;55.65;103130.22;5022073;27;99195;-67
2022/02/28 06:06:22;;;;;;;1999.90;999.90;;;;;;;-3.94;55.65;103128.75;5019698;27;100478;-70
2022/02/28 06:08:49;;;;;;;1999.90;999.90;;;;;;;-3.96;55.69;103118.16;5013988;28;97774;-69
2022/02/28 06:11:17;;;;;;;1999.90;999.90;;;;;;;-3.95;55.91;103119.09;5019574;28;96837;-70
2022/02/28 06:13:45;;;;;;;1999.90;999.90;;;;;;;-3.50;54.65;103121.78;5021572;27;97532;-69
2022/02/28 06:16:13;;;;;;;1999.90;999.90;;;;;;;-3.71;55.49;103126.22;5020712;27;96748;-70
2022/02/28 06:18:41;;;;;;;1999.90;999.90;;;;;;;-3.75;55.80;103135.34;5021355;28;97996;-72
2022/02/28 06:21:08;;;;;;;1999.90;999.90;;;;;;;-3.76;55.67;103125.66;5020879;27;97083;-71
2022/02/28 06:23:37;;;;;;;1999.90;999.90;;;;;;;-3.76;55.67;103125.66;5021107;27;97250;-71
2022/02/28 06:26:05;;;;;;;1999.90;999.90;;;;;;;-3.78;56.05;103127.16;5021679;28;98913;-70
2022/02/28 06:28:33;;;;;;;1999.90;999.90;;;;;;;-3.80;55.58;103128.66;5014479;28;98407;-69
2022/02/28 06:31:01;;;;;;;1999.90;999.90;;;;;;;-3.76;55.90;103127.34;5020834;27;97481;-71
2022/02/28 06:33:29;;;;;;;1999.90;999.90;;;;;;;-3.77;55.82;103125.50;5020250;27;98117;-71
2022/02/28 06:35:56;;;;;;;1999.90;999.90;;;;;;;-3.77;55.78;103126.44;5021084;28;100505;-69
2022/02/28 06:38:26;;;;;;;1999.90;999.90;;;;;;;-3.74;55.72;103131.03;5022463;27;99118;-69
2022/02/28 06:40:55;;;;;;;1999.90;999.90;;;;;;;-3.72;55.93;103137.34;5024153;27;98752;-72
2022/02/28 06:43:26;;;;;;;1999.90;999.90;;;;;;;-3.30;54.85;103131.84;5021480;27;97282;-67
2022/02/28 06:45:54;;;;;;;1999.90;999.90;;;;;;;-3.05;54.91;103131.25;5021948;28;98117;-71
2022/02/28 06:48:22;;;;;;;1999.90;999.90;;;;;;;-3.36;55.62;103141.56;5022990;28;97915;-69
2022/02/28 06:50:52;;;;;;;1999.90;999.90;;;;;;;-3.49;55.76;103139.22;5023204;28;97818;-67
2022/02/28 06:53:22;;;;;;;1999.90;999.90;;;;;;;-3.52;56.08;103143.16;5023545;28;97625;-71
2022/02/28 06:55:52;;;;;;;1999.90;999.90;;;;;;;-3.56;56.26;103147.09;5024882;28;99130;-71
2022/02/28 06:58:22;;;;;;;1999.90;999.90;;;;;;;-3.61;55.76;103143.06;5022941;28;98720;-69
2022/02/28 07:00:50;;;;;;;1999.90;999.90;;;;;;;-3.63;55.84;103149.75;5024897;28;97696;-69
2022/02/28 07:03:42;;;;;;;1999.90;999.90;;;;;;;-3.65;56.24;103147.72;5007860;27;96994;-71
2022/02/28 07:06:11;;;;;;;1999.90;999.90;;;;;;;-3.68;56.10;103155.16;5020855;28;97854;-69
2022/02/28 07:08:39;;;;;;;1999.90;999.90;;;;;;;-3.72;56.58;103159.09;5021750;28;99160;-69
2022/02/28 07:11:07;;;;;;;1999.90;999.90;;;;;;;-3.73;55.82;103162.44;5022538;27;97452;-70
2022/02/28 07:13:36;;;;;;;1999.90;999.90;;;;;;;-3.75;55.87;103168.22;5022138;27;96823;-70
2022/02/28 07:16:05;;;;;;;1999.90;999.90;;;;;;;-3.76;56.05;103168.94;5022870;28;99127;-68
2022/02/28 07:18:33;;;;;;;1999.90;999.90;;;;;;;-3.78;56.20;103167.84;5023933;28;98596;-69
2022/02/28 07:21:01;;;;;;;1999.90;999.90;;;;;;;-3.38;55.58;103164.81;5022185;28;97319;-70
2022/02/28 07:23:28;;;;;;;1999.90;999.90;;;;;;;-3.14;55.59;103158.88;5019864;28;97550;-71
2022/02/28 07:25:56;;;;;;;1999.90;999.90;;;;;;;-3.48;56.21;103164.53;5024265;28;99739;-71
2022/02/28 07:28:24;;;;;;;1999.90;999.90;;;;;;;-3.09;55.44;103169.06;5020703;28;99298;-72
2022/02/28 07:30:53;;;;;;;1999.90;999.90;;;;;;;-3.40;55.70;103175.81;5024213;27;96719;-70
2022/02/28 07:33:21;;;;;;;1999.90;999.90;;;;;;;-3.04;55.58;103180.00;5022945;28;97017;-68
2022/02/28 07:35:49;;;;;;;1999.90;999.90;;;;;;;-2.89;55.12;103182.66;5040586;27;99350;-70
2022/02/28 07:38:17;;;;;;;1999.90;999.90;;;;;;;-2.74;55.04;103182.53;5022343;28;97696;-71
2022/02/28 07:40:45;;;;;;;1999.90;999.90;;;;;;;-2.64;54.98;103181.16;5023524;27;97808;-69
2022/02/28 07:43:13;;;;;;;1999.90;999.90;;;;;;;-3.10;56.01;103192.31;5021869;27;97685;-67
2022/02/28 07:45:41;;;;;;;1999.90;999.90;;;;;;;-2.72;55.51;103192.38;5019761;28;97959;-72
2022/02/28 07:48:10;;;;;;;1999.90;999.90;;;;;;;-3.07;55.68;103201.41;5021829;28;98250;-71
2022/02/28 07:50:38;;;;;;;1999.90;999.90;;;;;;;-3.19;56.17;103200.03;5023887;27;97639;-68
2022/02/28 07:53:06;;;;;;;1999.90;999.90;;;;;;;-3.29;56.17;103206.59;5021633;27;97573;-70
2022/02/28 07:55:34;;;;;;;1999.90;999.90;;;;;;;-3.32;56.29;103209.78;5024173;27;99570;-69
2022/02/28 07:58:01;;;;;;;1999.90;999.90;;;;;;;-3.34;56.54;103205.13;5022065;28;98746;-71
2022/02/28 08:00:29;;;;;;;1999.90;999.90;;;;;;;-2.97;55.80;103209.53;5020751;28;97516;-68
2022/02/28 08:03:00;;;;;;;1999.90;999.90;;;;;;;-2.79;55.50;103205.47;5019476;28;98070;-72
2022/02/28 08:05:29;;;;;;;1999.90;999.90;;;;;;;-2.63;55.08;103209.03;5018124;27;97553;-72
2022/02/28 08:07:57;;;;;;;1999.90;999.90;;;;;;;-2.52;55.44;103205.97;5019280;28;98899;-69
2022/02/28 08:10:24;;;;;;;1999.90;999.90;;;;;;;-2.42;55.23;103211.47;5020105;28;97058;-68
2022/02/28 08:12:52;;;;;;;1999.90;999.90;;;;;;;-2.35;54.41;103208.78;5022017;28;96740;-69
2022/02/28 08:15:20;;;;;;;1999.90;999.90;;;;;;;-2.29;54.51;103199.00;5020711;27;97816;-68
2022/02/28 08:17:48;;;;;;;1999.90;999.90;;;;;;;-2.24;54.44;103205.69;5020732;28;97706;-70
2022/02/28 08:20:16;;;;;;;1999.90;999.90;;;;;;;-2.18;54.55;103198.50;5018915;28;96858;-68
2022/02/28 08:22:45;;;;;;;1999.90;999.90;;;;;;;-2.61;55.35;103197.13;5022583;28;97356;-69
2022/02/28 08:25:16;;;;;;;1999.90;999.90;;;;;;;-2.33;54.95;103203.72;5019295;27;99515;-69
2022/02/28 08:27:44;;;;;;;1999.90;999.90;;;;;;;-2.74;55.92;103206.91;5019539;28;98815;-71
2022/02/28 08:30:13;;;;;;;1999.90;999.90;;;;;;;-2.89;55.91;103199.97;5004137;28;97314;-72
2022/02/28 08:32:40;;;;;;;1999.90;999.90;;;;;;;-2.96;56.22;103211.38;5022368;28;99629;-69
2022/02/28 08:35:08;;;;;;;1999.90;999.90;;;;;;;-3.05;56.21;103206.78;5022499;28;97645;-68
2022/02/28 08:37:36;;;;;;;1999.90;999.90;;;;;;;-3.09;56.92;103212.41;5022395;28;99310;-68
2022/02/28 08:40:07;;;;;;;1999.90;999.90;;;;;;;-3.13;56.54;103208.53;5022494;27;96825;-68
2022/02/28 08:42:34;;;;;;;1999.90;999.90;;;;;;;-3.15;56.51;103211.72;5021654;28;96765;-69
2022/02/28 08:45:03;;;;;;;1999.90;999.90;;;;;;;-3.20;56.87;103212.88;5018146;28;98498;-69
2022/02/28 08:47:31;;;;;;;1999.90;999.90;;;;;;;-3.22;56.48;103217.88;5021999;28;98877;-67
2022/02/28 08:50:00;;;;;;;1999.90;999.90;;;;;;;-3.22;56.29;103211.78;5021957;28;97604;-69
2022/02/28 08:52:28;;;;;;;1999.90;999.90;;;;;;;-3.23;56.73;103209.91;5021899;28;97654;-67
2022/02/28 08:54:56;;;;;;;1999.90;999.90;;;;;;;-3.24;56.40;103206.38;5021424;28;99038;-68
2022/02/28 08:57:25;;;;;;;1999.90;999.90;;;;;;;-3.25;56.74;103208.78;5018850;28;97795;-69
2022/02/28 08:59:53;;;;;;;1999.90;999.90;;;;;;;-3.25;56.82;103208.78;5002349;28;98118;-69
2022/02/28 09:02:22;;;;;;;1999.90;999.90;;;;;;;-2.88;55.67;103207.97;5019651;28;100333;-70
2022/02/28 09:04:50;;;;;;;1999.90;999.90;;;;;;;-2.64;55.90;103202.00;5018714;28;99402;-68
2022/02/28 09:07:18;;;;;;;1999.90;999.90;;;;;;;-2.46;55.03;103200.50;5015105;28;99604;-68
2022/02/28 09:09:46;;;;;;;1999.90;999.90;;;;;;;-2.78;56.08;103202.09;5020969;28;96914;-70
2022/02/28 09:12:14;;;;;;;1999.90;999.90;;;;;;;-2.86;56.20;103198.66;5022274;27;97172;-67
2022/02/28 09:14:44;;;;;;;1999.90;999.90;;;;;;;-2.94;56.28;103214.16;5021184;28;98788;-70
2022/02/28 09:17:11;;;;;;;1999.90;999.90;;;;;;;-2.99;56.08;103207.50;5022126;27;98224;-69
2022/02/28 09:19:39;;;;;;;1999.90;999.90;;;;;;;-3.06;56.48;103212.78;5006090;28;97763;-70
2022/02/28 09:22:09;;;;;;;1999.90;999.90;;;;;;;-3.14;56.47;103209.28;5020316;27;96858;-69
2022/02/28 09:24:37;;;;;;;1999.90;999.90;;;;;;;-3.16;56.69;103210.78;5021245;27;97687;-71
2022/02/28 09:27:07;;;;;;;1999.90;999.90;;;;;;;-3.16;56.38;103217.66;5019273;27;98783;-70
2022/02/28 09:29:35;;;;;;;1999.90;999.90;;;;;;;-3.20;56.58;103218.09;5023558;28;96774;-71
2022/02/28 09:32:06;;;;;;;1999.90;999.90;;;;;;;-3.21;56.58;103226.63;5023639;27;97109;-70
2022/02/28 09:34:34;;;;;;;1999.90;999.90;;;;;;;-3.22;56.62;103219.59;5023994;27;97514;-69
2022/02/28 09:37:02;;;;;;;1999.90;999.90;;;;;;;-2.85;55.99;103212.59;5022806;27;98445;-71
2022/02/28 09:39:30;;;;;;;1999.90;999.90;;;;;;;-2.63;55.37;103213.31;5040051;27;97092;-70
2022/02/28 09:42:27;;;;;;;1999.90;999.90;;;;;;;-2.43;54.75;103208.66;5021370;28;97529;-72
2022/02/28 09:45:14;;;;;;;1999.90;999.90;;;;;;;-2.35;55.17;103203.56;5023353;27;97993;-71
2022/02/28 09:48:02;;;;;;;1999.90;999.90;;;;;;;-2.22;55.08;103211.06;5023424;27;97893;-71
2022/02/28 09:50:39;;;;;;;1999.90;999.90;;;;;;;-2.14;54.88;103219.00;5024072;27;97066;-70
2022/02/28 09:53:32;;;;;;;1999.90;999.90;;;;;;;-2.10;54.28;103213.38;5024806;27;98572;-67
2022/02/28 09:56:05;;;;;;;1999.90;999.90;;;;;;;-2.04;53.91;103221.88;5023300;28;98729;-70
2022/02/28 09:58:35;;;;;;;1999.90;999.90;;;;;;;-1.98;54.43;103211.19;5022241;28;97426;-72
2022/02/28 10:01:05;;;;;;;1999.90;999.90;;;;;;;-1.92;54.32;103207.56;5004950;28;97691;-69
2022/02/28 10:03:40;;;;;;;1999.90;999.90;;;;;;;-2.29;55.15;103216.34;5006202;28;97430;-71
2022/02/28 10:06:08;;;;;;;1999.90;999.90;;;;;;;-2.47;55.97;103217.81;5041807;27;96809;-68
2022/02/28 10:08:43;;;;;;;1999.90;999.90;;;;;;;-2.56;55.93;103222.00;5024435;28;97608;-68
2022/02/28 10:11:25;;;;;;;1999.90;999.90;;;;;;;-2.67;56.02;103224.19;5025435;27;97124;-69
2022/02/28 10:13:54;;;;;;;1999.90;999.90;;;;;;;-2.71;56.60;103220.31;5024930;27;97317;-66
2022/02/28 10:16:33;;;;;;;1999.90;999.90;;;;;;;-2.75;56.45;103225.91;5024922;27;100669;-70
2022/02/28 10:19:05;;;;;;;1999.90;999.90;;;;;;;-2.78;56.68;103222.94;5022243;28;97754;-70
2022/02/28 10:21:39;;;;;;;1999.90;999.90;;;;;;;-2.79;56.61;103225.38;5024704;28;97636;-67
2022/02/28 10:24:08;;;;;;;1999.90;999.90;;;;;;;-2.81;56.68;103227.81;5022619;28;96736;-69
2022/02/28 10:26:57;;;;;;;1999.90;999.90;;;;;;;-2.87;56.18;103235.88;5024169;27;99669;-69
2022/02/28 10:29:43;;;;;;;1999.90;999.90;;;;;;;-2.87;56.52;103240.13;5022920;27;98493;-70
2022/02/28 10:32:47;;;;;;;1999.90;999.90;;;;;;;-2.87;56.53;103232.31;5023048;28;97291;-69
2022/02/28 10:36:01;;;;;;;1999.90;999.90;;;;;;;-2.86;56.51;103218.56;5021460;28;97019;-70
2022/02/28 10:38:34;;;;;;;1999.90;999.90;;;;;;;-2.82;56.58;103225.03;5021288;27;97217;-70
2022/02/28 10:41:04;;;;;;;1999.90;999.90;;;;;;;-2.80;56.40;103219.22;5024069;28;97195;-70
2022/02/28 10:43:35;;;;;;;1999.90;999.90;;;;;;;-2.75;56.67;103227.59;5021621;28;97724;-69
2022/02/28 10:46:14;;;;;;;1999.90;999.90;;;;;;;-2.42;55.42;103226.16;5021436;28;98090;-70
2022/02/28 10:48:56;;;;;;;1999.90;999.90;;;;;;;-2.20;55.72;103210.44;5022346;27;97920;-69
2022/02/28 10:51:26;;;;;;;1999.90;999.90;;;;;;;-1.99;54.91;103215.47;5019789;28;99486;-69
2022/02/28 10:54:08;;;;;;;1999.90;999.90;;;;;;;-1.84;54.90;103213.63;5021886;28;97573;-69
2022/02/28 10:56:50;;;;;;;1999.90;999.90;;;;;;;-1.69;55.25;103220.53;5020826;28;96780;-71
2022/02/28 10:59:19;;;;;;;1999.90;999.90;;;;;;;-1.58;55.11;103219.06;5020465;28;98138;-70
2022/02/28 11:01:47;;;;;;;1999.90;999.90;;;;;;;-1.50;54.93;103220.81;5020339;28;100578;-71